This is the latest recevied weather packets stored in our database for station/object AF1E. If no packets are shown the sender has not sent any weather packets the latest 10 day(s).
| Time | Temp. | Humidity | Pressure | Rain* | Wind** | Luminosity | Snow |
|---|---|---|---|---|---|---|---|
| 1777362318 | 10° C | 89% | 1018.8 hPa | 0 mm | - | - | - |
| 1777359337 | 10.56° C | 87% | 1019.3 hPa | 0 mm | - | - | - |
| 1777352717 | 11.11° C | 85% | 1020.2 hPa | 0 mm | - | - | - |
| 1777351517 | 11.11° C | 87% | 1020 hPa | 0 mm | - | - | - |
| 1777350317 | 10.56° C | 90% | 1020.3 hPa | 0 mm | - | - | - |
| 1777349717 | 10.56° C | 90% | 1020.2 hPa | 0 mm | - | - | - |
| 1777348517 | 11.11° C | 89% | 1020.3 hPa | 0 mm | - | - | - |
| 1777344317 | 12.22° C | 84% | 1020.1 hPa | 0 mm | - | - | - |
| 1777342517 | 12.78° C | 80% | 1019.9 hPa | 0 mm | - | - | - |
| 1777340717 | 13.33° C | 80% | 1019.8 hPa | 0 mm | - | - | - |
| 1777337117 | 15.56° C | 68% | 1019.6 hPa | 0 mm | - | - | - |
| 1777335917 | 16.11° C | 63% | 1019.5 hPa | 0 mm | - | - | - |
| 1777331116 | 19.44° C | 54% | 1018.7 hPa | 0 mm | - | - | - |
| 1777328737 | 20° C | 50% | 1018.5 hPa | 0 mm | - | - | - |
| 1777328136 | 20° C | 49% | 1018.7 hPa | 0 mm | - | - | - |
| 1777326917 | 20° C | 49% | 1018.9 hPa | 0 mm | - | - | - |
| 1777323316 | 21.11° C | 49% | 1019 hPa | 0 mm | - | - | - |
| 1777319716 | 22.22° C | 46% | 1019.4 hPa | 0 mm | - | - | - |
| 1777313736 | 20.56° C | 53% | 1020.3 hPa | 0 mm | - | - | - |
| 1777303516 | 16.67° C | 62% | 1021.6 hPa | 0 mm | - | - | - |
| 1777301116 | 15.56° C | 65% | 1021.9 hPa | 0 mm | - | - | - |
| 1777300516 | 15° C | 67% | 1021.8 hPa | 0 mm | - | - | - |
| 1777299916 | 15° C | 69% | 1021.9 hPa | 0 mm | - | - | - |
| 1777297516 | 12.78° C | 72% | 1022 hPa | 0 mm | - | - | - |
| 1777296316 | 12.22° C | 71% | 1022.1 hPa | 0 mm | - | - | - |
* Rain latest hour (hover to see other rain measurements)
** Current wind speed in m/s (hover to see current wind gust speed)